Ferintosh, Canada
Current Conditions -  °F | °C
As of 9:00 AM on Thursday 29 Jan 2015 (Local Time) from CYEG Reporting Station
Haze Haze  
Wind Chill: 13°   Ceiling: 400
Heat Index: 23°   Visibility: 1.7mi
Dew Point: 21°   Wind: 9mph
Humidity: 93%   Direction: 150°SSE
Pressure: 30.26"   Gusts: NA
Location:  52.77°N, 112.97°W
Report Text: CYEG 291600Z 15008KT 1 3/4SM BR OVC004 M05/M06 A3026 RMK FG3ST5 FROIN SLP291
Loading
Personal Weather Stations






























Interactive Weather Map New forecast layout! Learn more

10-Day Weather Forecast

Advertisements
Track Severe Weather on mobile